sensor_id;sensor_type;location;lat;lon;timestamp;P1;durP1;ratioP1;P2;durP2;ratioP2
14369;SDS011;7268;50.792;0.252;2023-09-12T00:00:45;5.57;;;2.25;;
14369;SDS011;7268;50.792;0.252;2023-09-12T00:03:12;4.75;;;2.80;;
14369;SDS011;7268;50.792;0.252;2023-09-12T00:05:39;5.03;;;2.42;;
14369;SDS011;7268;50.792;0.252;2023-09-12T00:08:06;6.20;;;2.75;;
14369;SDS011;7268;50.792;0.252;2023-09-12T00:10:33;5.05;;;2.22;;
14369;SDS011;7268;50.792;0.252;2023-09-12T00:13:00;5.05;;;1.92;;
14369;SDS011;7268;50.792;0.252;2023-09-12T00:15:28;3.92;;;1.30;;
14369;SDS011;7268;50.792;0.252;2023-09-12T00:17:55;4.45;;;2.45;;
14369;SDS011;7268;50.792;0.252;2023-09-12T00:20:23;6.47;;;2.45;;
14369;SDS011;7268;50.792;0.252;2023-09-12T00:22:50;7.25;;;2.15;;
14369;SDS011;7268;50.792;0.252;2023-09-12T00:25:17;6.93;;;2.80;;
14369;SDS011;7268;50.792;0.252;2023-09-12T00:27:44;5.40;;;3.10;;
14369;SDS011;7268;50.792;0.252;2023-09-12T00:30:10;6.20;;;2.63;;
14369;SDS011;7268;50.792;0.252;2023-09-12T00:32:38;5.30;;;2.60;;
14369;SDS011;7268;50.792;0.252;2023-09-12T00:35:05;4.75;;;2.25;;
14369;SDS011;7268;50.792;0.252;2023-09-12T00:37:32;7.68;;;2.55;;
14369;SDS011;7268;50.792;0.252;2023-09-12T00:39:59;5.95;;;3.13;;
14369;SDS011;7268;50.792;0.252;2023-09-12T00:42:26;7.03;;;2.80;;
14369;SDS011;7268;50.792;0.252;2023-09-12T00:44:53;8.07;;;3.00;;
14369;SDS011;7268;50.792;0.252;2023-09-12T00:47:20;6.65;;;3.03;;
14369;SDS011;7268;50.792;0.252;2023-09-12T00:49:49;6.25;;;3.58;;
14369;SDS011;7268;50.792;0.252;2023-09-12T00:52:22;7.90;;;3.92;;
14369;SDS011;7268;50.792;0.252;2023-09-12T00:54:53;7.53;;;3.60;;
14369;SDS011;7268;50.792;0.252;2023-09-12T00:57:21;7.78;;;4.43;;
14369;SDS011;7268;50.792;0.252;2023-09-12T01:02:18;8.90;;;4.95;;
14369;SDS011;7268;50.792;0.252;2023-09-12T01:04:48;8.35;;;4.18;;
14369;SDS011;7268;50.792;0.252;2023-09-12T01:07:15;11.25;;;4.05;;
14369;SDS011;7268;50.792;0.252;2023-09-12T01:09:42;9.23;;;4.75;;
14369;SDS011;7268;50.792;0.252;2023-09-12T01:12:10;11.65;;;5.28;;
14369;SDS011;7268;50.792;0.252;2023-09-12T01:14:41;9.23;;;4.32;;
14369;SDS011;7268;50.792;0.252;2023-09-12T01:17:08;9.80;;;5.28;;
14369;SDS011;7268;50.792;0.252;2023-09-12T01:19:35;10.90;;;5.32;;
14369;SDS011;7268;50.792;0.252;2023-09-12T01:22:16;11.27;;;4.90;;
14369;SDS011;7268;50.792;0.252;2023-09-12T01:27:40;14.68;;;6.10;;
14369;SDS011;7268;50.792;0.252;2023-09-12T01:30:11;10.80;;;4.78;;
14369;SDS011;7268;50.792;0.252;2023-09-12T01:32:41;11.77;;;6.05;;
14369;SDS011;7268;50.792;0.252;2023-09-12T01:35:08;10.50;;;4.05;;
14369;SDS011;7268;50.792;0.252;2023-09-12T01:37:35;9.13;;;4.40;;
14369;SDS011;7268;50.792;0.252;2023-09-12T01:40:02;9.90;;;4.65;;
14369;SDS011;7268;50.792;0.252;2023-09-12T01:42:31;11.20;;;5.65;;
14369;SDS011;7268;50.792;0.252;2023-09-12T01:47:31;10.95;;;5.85;;
14369;SDS011;7268;50.792;0.252;2023-09-12T01:49:59;9.80;;;4.70;;
14369;SDS011;7268;50.792;0.252;2023-09-12T01:52:28;12.70;;;5.82;;
14369;SDS011;7268;50.792;0.252;2023-09-12T01:54:55;12.18;;;5.22;;
14369;SDS011;7268;50.792;0.252;2023-09-12T01:57:24;11.85;;;4.55;;
14369;SDS011;7268;50.792;0.252;2023-09-12T01:59:52;11.65;;;5.28;;
14369;SDS011;7268;50.792;0.252;2023-09-12T02:02:18;12.20;;;5.03;;
14369;SDS011;7268;50.792;0.252;2023-09-12T02:05:20;11.85;;;5.05;;
14369;SDS011;7268;50.792;0.252;2023-09-12T02:07:45;11.25;;;4.55;;
14369;SDS011;7268;50.792;0.252;2023-09-12T02:10:13;11.43;;;5.35;;
14369;SDS011;7268;50.792;0.252;2023-09-12T02:12:40;14.40;;;5.97;;
14369;SDS011;7268;50.792;0.252;2023-09-12T02:15:07;12.20;;;5.43;;
14369;SDS011;7268;50.792;0.252;2023-09-12T02:17:35;10.27;;;4.93;;
14369;SDS011;7268;50.792;0.252;2023-09-12T02:20:02;10.75;;;4.47;;
14369;SDS011;7268;50.792;0.252;2023-09-12T02:22:31;13.77;;;5.57;;
14369;SDS011;7268;50.792;0.252;2023-09-12T02:24:58;13.57;;;5.95;;
14369;SDS011;7268;50.792;0.252;2023-09-12T02:27:25;13.75;;;6.32;;
14369;SDS011;7268;50.792;0.252;2023-09-12T02:29:52;13.95;;;5.78;;
14369;SDS011;7268;50.792;0.252;2023-09-12T02:32:26;15.00;;;6.65;;
14369;SDS011;7268;50.792;0.252;2023-09-12T02:34:53;18.20;;;6.22;;
14369;SDS011;7268;50.792;0.252;2023-09-12T02:37:23;19.40;;;5.72;;
14369;SDS011;7268;50.792;0.252;2023-09-12T02:39:49;15.30;;;7.18;;
14369;SDS011;7268;50.792;0.252;2023-09-12T02:42:16;17.67;;;6.88;;
14369;SDS011;7268;50.792;0.252;2023-09-12T02:44:43;15.05;;;7.15;;
14369;SDS011;7268;50.792;0.252;2023-09-12T02:47:10;16.95;;;6.20;;
14369;SDS011;7268;50.792;0.252;2023-09-12T02:49:37;14.40;;;6.57;;
14369;SDS011;7268;50.792;0.252;2023-09-12T02:52:04;19.20;;;7.38;;
14369;SDS011;7268;50.792;0.252;2023-09-12T02:54:31;16.83;;;7.03;;
14369;SDS011;7268;50.792;0.252;2023-09-12T02:56:58;17.40;;;6.43;;
14369;SDS011;7268;50.792;0.252;2023-09-12T02:59:24;15.27;;;6.10;;
14369;SDS011;7268;50.792;0.252;2023-09-12T03:01:51;15.80;;;6.95;;
14369;SDS011;7268;50.792;0.252;2023-09-12T03:04:18;16.30;;;6.97;;
14369;SDS011;7268;50.792;0.252;2023-09-12T03:06:45;17.85;;;6.80;;
14369;SDS011;7268;50.792;0.252;2023-09-12T03:09:13;21.20;;;9.70;;
14369;SDS011;7268;50.792;0.252;2023-09-12T03:11:40;16.55;;;7.75;;
14369;SDS011;7268;50.792;0.252;2023-09-12T03:14:07;16.60;;;6.55;;
14369;SDS011;7268;50.792;0.252;2023-09-12T03:16:34;16.23;;;6.80;;
14369;SDS011;7268;50.792;0.252;2023-09-12T03:19:02;19.80;;;8.23;;
14369;SDS011;7268;50.792;0.252;2023-09-12T03:21:30;16.38;;;6.18;;
14369;SDS011;7268;50.792;0.252;2023-09-12T03:23:57;19.42;;;8.20;;
14369;SDS011;7268;50.792;0.252;2023-09-12T03:26:24;17.60;;;6.30;;
14369;SDS011;7268;50.792;0.252;2023-09-12T03:28:50;14.10;;;6.47;;
14369;SDS011;7268;50.792;0.252;2023-09-12T03:31:17;15.75;;;5.50;;
14369;SDS011;7268;50.792;0.252;2023-09-12T03:33:44;17.92;;;6.90;;
14369;SDS011;7268;50.792;0.252;2023-09-12T03:36:16;17.00;;;7.47;;
14369;SDS011;7268;50.792;0.252;2023-09-12T03:38:46;15.43;;;5.53;;
14369;SDS011;7268;50.792;0.252;2023-09-12T03:41:13;17.48;;;6.97;;
14369;SDS011;7268;50.792;0.252;2023-09-12T03:43:40;15.70;;;7.10;;
14369;SDS011;7268;50.792;0.252;2023-09-12T03:46:07;16.75;;;6.70;;
14369;SDS011;7268;50.792;0.252;2023-09-12T03:48:34;13.70;;;6.43;;
14369;SDS011;7268;50.792;0.252;2023-09-12T03:51:03;16.08;;;7.00;;
14369;SDS011;7268;50.792;0.252;2023-09-12T03:53:30;16.27;;;7.75;;
14369;SDS011;7268;50.792;0.252;2023-09-12T03:55:57;16.10;;;7.35;;
14369;SDS011;7268;50.792;0.252;2023-09-12T03:58:25;16.65;;;6.80;;
14369;SDS011;7268;50.792;0.252;2023-09-12T04:00:52;12.63;;;6.55;;
14369;SDS011;7268;50.792;0.252;2023-09-12T04:03:19;14.18;;;6.43;;
14369;SDS011;7268;50.792;0.252;2023-09-12T04:05:47;12.63;;;6.22;;
14369;SDS011;7268;50.792;0.252;2023-09-12T04:08:14;15.23;;;6.30;;
14369;SDS011;7268;50.792;0.252;2023-09-12T04:10:41;18.45;;;7.93;;
14369;SDS011;7268;50.792;0.252;2023-09-12T04:13:09;16.02;;;6.85;;
14369;SDS011;7268;50.792;0.252;2023-09-12T04:15:36;16.08;;;6.30;;
14369;SDS011;7268;50.792;0.252;2023-09-12T04:18:03;14.70;;;6.43;;
14369;SDS011;7268;50.792;0.252;2023-09-12T04:20:30;19.50;;;8.25;;
14369;SDS011;7268;50.792;0.252;2023-09-12T04:22:59;17.35;;;7.25;;
14369;SDS011;7268;50.792;0.252;2023-09-12T04:25:27;15.07;;;6.90;;
14369;SDS011;7268;50.792;0.252;2023-09-12T04:27:54;14.77;;;7.60;;
14369;SDS011;7268;50.792;0.252;2023-09-12T04:30:21;16.67;;;7.18;;
14369;SDS011;7268;50.792;0.252;2023-09-12T04:32:48;17.52;;;7.28;;
14369;SDS011;7268;50.792;0.252;2023-09-12T04:35:15;19.42;;;7.90;;
14369;SDS011;7268;50.792;0.252;2023-09-12T04:37:44;16.23;;;7.03;;
14369;SDS011;7268;50.792;0.252;2023-09-12T04:40:11;19.77;;;7.53;;
14369;SDS011;7268;50.792;0.252;2023-09-12T04:42:37;19.52;;;7.47;;
14369;SDS011;7268;50.792;0.252;2023-09-12T04:45:04;15.60;;;7.32;;
14369;SDS011;7268;50.792;0.252;2023-09-12T04:49:59;18.73;;;7.85;;
14369;SDS011;7268;50.792;0.252;2023-09-12T04:52:27;17.83;;;6.60;;
14369;SDS011;7268;50.792;0.252;2023-09-12T04:54:56;16.50;;;7.63;;
14369;SDS011;7268;50.792;0.252;2023-09-12T04:57:23;15.90;;;6.63;;
14369;SDS011;7268;50.792;0.252;2023-09-12T04:59:50;12.77;;;5.60;;
14369;SDS011;7268;50.792;0.252;2023-09-12T05:02:18;16.13;;;6.40;;
14369;SDS011;7268;50.792;0.252;2023-09-12T05:04:45;17.83;;;6.22;;
14369;SDS011;7268;50.792;0.252;2023-09-12T05:07:12;19.95;;;7.47;;
14369;SDS011;7268;50.792;0.252;2023-09-12T05:09:39;13.32;;;5.90;;
14369;SDS011;7268;50.792;0.252;2023-09-12T05:12:06;17.98;;;6.85;;
14369;SDS011;7268;50.792;0.252;2023-09-12T05:14:33;20.63;;;8.25;;
14369;SDS011;7268;50.792;0.252;2023-09-12T05:17:00;17.70;;;7.45;;
14369;SDS011;7268;50.792;0.252;2023-09-12T05:19:29;16.85;;;6.57;;
14369;SDS011;7268;50.792;0.252;2023-09-12T05:21:56;16.60;;;5.70;;
14369;SDS011;7268;50.792;0.252;2023-09-12T05:24:23;16.50;;;5.07;;
14369;SDS011;7268;50.792;0.252;2023-09-12T05:26:50;17.20;;;6.55;;
14369;SDS011;7268;50.792;0.252;2023-09-12T05:29:17;21.30;;;7.20;;
14369;SDS011;7268;50.792;0.252;2023-09-12T05:31:44;18.92;;;7.10;;
14369;SDS011;7268;50.792;0.252;2023-09-12T05:34:11;19.20;;;7.38;;
14369;SDS011;7268;50.792;0.252;2023-09-12T05:36:38;16.92;;;6.18;;
14369;SDS011;7268;50.792;0.252;2023-09-12T05:39:05;20.08;;;7.10;;
14369;SDS011;7268;50.792;0.252;2023-09-12T05:41:32;17.52;;;6.72;;
14369;SDS011;7268;50.792;0.252;2023-09-12T05:43:59;19.48;;;6.82;;
14369;SDS011;7268;50.792;0.252;2023-09-12T05:46:26;20.27;;;6.32;;
14369;SDS011;7268;50.792;0.252;2023-09-12T05:48:53;17.98;;;6.80;;
14369;SDS011;7268;50.792;0.252;2023-09-12T05:51:20;14.95;;;6.40;;
14369;SDS011;7268;50.792;0.252;2023-09-12T05:53:47;15.32;;;6.28;;
14369;SDS011;7268;50.792;0.252;2023-09-12T05:56:14;16.05;;;5.75;;
14369;SDS011;7268;50.792;0.252;2023-09-12T05:58:41;16.73;;;6.07;;
14369;SDS011;7268;50.792;0.252;2023-09-12T06:01:09;13.98;;;5.18;;
14369;SDS011;7268;50.792;0.252;2023-09-12T06:03:37;16.08;;;5.85;;
14369;SDS011;7268;50.792;0.252;2023-09-12T06:06:04;14.65;;;6.05;;
14369;SDS011;7268;50.792;0.252;2023-09-12T06:08:31;19.77;;;6.40;;
14369;SDS011;7268;50.792;0.252;2023-09-12T06:10:58;16.90;;;5.90;;
14369;SDS011;7268;50.792;0.252;2023-09-12T06:13:25;15.88;;;5.97;;
14369;SDS011;7268;50.792;0.252;2023-09-12T06:15:52;20.95;;;6.68;;
14369;SDS011;7268;50.792;0.252;2023-09-12T06:18:19;17.05;;;5.82;;
14369;SDS011;7268;50.792;0.252;2023-09-12T06:20:46;17.00;;;6.43;;
14369;SDS011;7268;50.792;0.252;2023-09-12T06:23:13;36.03;;;15.82;;
14369;SDS011;7268;50.792;0.252;2023-09-12T06:25:40;17.77;;;6.78;;
14369;SDS011;7268;50.792;0.252;2023-09-12T06:28:08;20.48;;;5.95;;
14369;SDS011;7268;50.792;0.252;2023-09-12T06:30:36;12.48;;;4.90;;
14369;SDS011;7268;50.792;0.252;2023-09-12T06:33:03;16.05;;;6.18;;
14369;SDS011;7268;50.792;0.252;2023-09-12T06:35:38;17.10;;;6.70;;
14369;SDS011;7268;50.792;0.252;2023-09-12T06:38:08;16.15;;;5.75;;
14369;SDS011;7268;50.792;0.252;2023-09-12T06:40:35;14.88;;;5.82;;
14369;SDS011;7268;50.792;0.252;2023-09-12T06:43:01;16.25;;;7.22;;
14369;SDS011;7268;50.792;0.252;2023-09-12T06:45:28;16.65;;;6.40;;
14369;SDS011;7268;50.792;0.252;2023-09-12T06:47:59;17.23;;;5.68;;
14369;SDS011;7268;50.792;0.252;2023-09-12T06:50:26;14.32;;;4.68;;
14369;SDS011;7268;50.792;0.252;2023-09-12T06:52:58;15.63;;;6.00;;
14369;SDS011;7268;50.792;0.252;2023-09-12T06:55:25;13.57;;;5.53;;
14369;SDS011;7268;50.792;0.252;2023-09-12T06:57:51;10.88;;;5.25;;
14369;SDS011;7268;50.792;0.252;2023-09-12T07:00:18;13.13;;;3.80;;
14369;SDS011;7268;50.792;0.252;2023-09-12T07:02:46;12.95;;;4.60;;
14369;SDS011;7268;50.792;0.252;2023-09-12T07:05:13;13.70;;;5.25;;
14369;SDS011;7268;50.792;0.252;2023-09-12T07:07:41;13.07;;;4.53;;
14369;SDS011;7268;50.792;0.252;2023-09-12T07:10:07;10.50;;;5.00;;
14369;SDS011;7268;50.792;0.252;2023-09-12T07:12:50;10.45;;;4.78;;
14369;SDS011;7268;50.792;0.252;2023-09-12T07:17:44;12.40;;;5.53;;
14369;SDS011;7268;50.792;0.252;2023-09-12T07:20:11;14.02;;;4.68;;
14369;SDS011;7268;50.792;0.252;2023-09-12T07:22:38;13.18;;;4.65;;
14369;SDS011;7268;50.792;0.252;2023-09-12T07:25:06;11.27;;;3.95;;
14369;SDS011;7268;50.792;0.252;2023-09-12T07:27:35;9.77;;;4.13;;
14369;SDS011;7268;50.792;0.252;2023-09-12T07:30:03;10.65;;;4.05;;
14369;SDS011;7268;50.792;0.252;2023-09-12T07:32:33;11.70;;;3.75;;
14369;SDS011;7268;50.792;0.252;2023-09-12T07:34:59;12.38;;;4.38;;
14369;SDS011;7268;50.792;0.252;2023-09-12T07:37:26;10.23;;;4.43;;
14369;SDS011;7268;50.792;0.252;2023-09-12T07:39:53;10.73;;;4.28;;
14369;SDS011;7268;50.792;0.252;2023-09-12T07:42:21;8.88;;;3.47;;
14369;SDS011;7268;50.792;0.252;2023-09-12T07:44:49;8.88;;;4.18;;
14369;SDS011;7268;50.792;0.252;2023-09-12T07:47:16;9.70;;;4.55;;
14369;SDS011;7268;50.792;0.252;2023-09-12T07:52:10;6.70;;;2.92;;
14369;SDS011;7268;50.792;0.252;2023-09-12T07:54:37;6.30;;;2.83;;
14369;SDS011;7268;50.792;0.252;2023-09-12T07:57:04;11.77;;;3.40;;
14369;SDS011;7268;50.792;0.252;2023-09-12T07:59:31;6.45;;;2.83;;
14369;SDS011;7268;50.792;0.252;2023-09-12T08:01:58;6.60;;;3.10;;
14369;SDS011;7268;50.792;0.252;2023-09-12T08:04:24;5.00;;;2.50;;
14369;SDS011;7268;50.792;0.252;2023-09-12T08:06:52;8.15;;;2.95;;
14369;SDS011;7268;50.792;0.252;2023-09-12T08:09:24;7.82;;;3.15;;
14369;SDS011;7268;50.792;0.252;2023-09-12T08:12:11;7.13;;;3.55;;
14369;SDS011;7268;50.792;0.252;2023-09-12T08:14:38;5.15;;;2.28;;
14369;SDS011;7268;50.792;0.252;2023-09-12T08:17:05;6.40;;;2.83;;
14369;SDS011;7268;50.792;0.252;2023-09-12T08:19:33;5.53;;;1.98;;
14369;SDS011;7268;50.792;0.252;2023-09-12T08:21:59;5.18;;;2.58;;
14369;SDS011;7268;50.792;0.252;2023-09-12T08:24:26;5.38;;;2.38;;
14369;SDS011;7268;50.792;0.252;2023-09-12T08:26:53;5.28;;;3.33;;
14369;SDS011;7268;50.792;0.252;2023-09-12T08:29:20;4.05;;;1.60;;
14369;SDS011;7268;50.792;0.252;2023-09-12T08:31:47;3.75;;;1.67;;
14369;SDS011;7268;50.792;0.252;2023-09-12T08:34:14;3.42;;;1.60;;
14369;SDS011;7268;50.792;0.252;2023-09-12T08:36:41;3.08;;;1.38;;
14369;SDS011;7268;50.792;0.252;2023-09-12T08:39:11;6.18;;;1.52;;
14369;SDS011;7268;50.792;0.252;2023-09-12T08:41:40;3.60;;;1.00;;
14369;SDS011;7268;50.792;0.252;2023-09-12T08:44:07;3.63;;;1.98;;
14369;SDS011;7268;50.792;0.252;2023-09-12T08:46:35;4.93;;;2.42;;
14369;SDS011;7268;50.792;0.252;2023-09-12T08:49:04;6.40;;;3.33;;
14369;SDS011;7268;50.792;0.252;2023-09-12T08:51:32;7.47;;;3.03;;
14369;SDS011;7268;50.792;0.252;2023-09-12T08:53:59;5.18;;;2.13;;
14369;SDS011;7268;50.792;0.252;2023-09-12T08:56:28;4.60;;;1.65;;
14369;SDS011;7268;50.792;0.252;2023-09-12T08:58:55;4.22;;;1.80;;
14369;SDS011;7268;50.792;0.252;2023-09-12T09:01:22;4.32;;;1.45;;
14369;SDS011;7268;50.792;0.252;2023-09-12T09:03:50;4.22;;;1.75;;
14369;SDS011;7268;50.792;0.252;2023-09-12T09:06:17;3.78;;;0.98;;
14369;SDS011;7268;50.792;0.252;2023-09-12T09:08:45;5.47;;;1.52;;
14369;SDS011;7268;50.792;0.252;2023-09-12T09:11:14;3.22;;;0.75;;
14369;SDS011;7268;50.792;0.252;2023-09-12T09:13:41;2.83;;;1.10;;
14369;SDS011;7268;50.792;0.252;2023-09-12T09:16:12;3.55;;;1.33;;
14369;SDS011;7268;50.792;0.252;2023-09-12T09:18:57;2.97;;;1.17;;
14369;SDS011;7268;50.792;0.252;2023-09-12T09:21:36;2.35;;;0.73;;
14369;SDS011;7268;50.792;0.252;2023-09-12T09:24:07;5.25;;;0.65;;
14369;SDS011;7268;50.792;0.252;2023-09-12T09:26:48;2.95;;;1.20;;
14369;SDS011;7268;50.792;0.252;2023-09-12T09:29:20;3.58;;;0.98;;
14369;SDS011;7268;50.792;0.252;2023-09-12T09:31:48;3.30;;;1.13;;
14369;SDS011;7268;50.792;0.252;2023-09-12T09:34:20;2.13;;;1.05;;
14369;SDS011;7268;50.792;0.252;2023-09-12T09:36:50;2.63;;;0.70;;
14369;SDS011;7268;50.792;0.252;2023-09-12T09:39:20;3.75;;;1.02;;
14369;SDS011;7268;50.792;0.252;2023-09-12T09:41:49;3.03;;;0.70;;
14369;SDS011;7268;50.792;0.252;2023-09-12T09:44:18;2.83;;;1.15;;
14369;SDS011;7268;50.792;0.252;2023-09-12T09:46:46;3.75;;;0.98;;
14369;SDS011;7268;50.792;0.252;2023-09-12T09:49:19;3.78;;;0.98;;
14369;SDS011;7268;50.792;0.252;2023-09-12T09:51:47;3.58;;;0.90;;
14369;SDS011;7268;50.792;0.252;2023-09-12T09:54:14;3.35;;;1.00;;
14369;SDS011;7268;50.792;0.252;2023-09-12T09:56:53;4.03;;;1.02;;
14369;SDS011;7268;50.792;0.252;2023-09-12T09:59:26;4.53;;;0.65;;
14369;SDS011;7268;50.792;0.252;2023-09-12T10:01:57;3.42;;;1.23;;
14369;SDS011;7268;50.792;0.252;2023-09-12T10:04:26;2.83;;;1.30;;
14369;SDS011;7268;50.792;0.252;2023-09-12T10:06:57;3.22;;;1.05;;
14369;SDS011;7268;50.792;0.252;2023-09-12T10:09:25;4.00;;;1.60;;
14369;SDS011;7268;50.792;0.252;2023-09-12T10:11:55;4.00;;;1.35;;
14369;SDS011;7268;50.792;0.252;2023-09-12T10:14:24;2.22;;;1.02;;
14369;SDS011;7268;50.792;0.252;2023-09-12T10:16:57;2.92;;;0.98;;
14369;SDS011;7268;50.792;0.252;2023-09-12T10:19:35;2.65;;;0.85;;
14369;SDS011;7268;50.792;0.252;2023-09-12T10:22:12;2.88;;;0.95;;
14369;SDS011;7268;50.792;0.252;2023-09-12T10:24:46;2.65;;;0.65;;
14369;SDS011;7268;50.792;0.252;2023-09-12T10:27:16;1.75;;;0.50;;
14369;SDS011;7268;50.792;0.252;2023-09-12T10:29:45;1.45;;;0.45;;
14369;SDS011;7268;50.792;0.252;2023-09-12T10:32:14;1.52;;;0.70;;
14369;SDS011;7268;50.792;0.252;2023-09-12T10:34:41;3.97;;;0.63;;
14369;SDS011;7268;50.792;0.252;2023-09-12T10:37:16;3.08;;;0.82;;
14369;SDS011;7268;50.792;0.252;2023-09-12T10:39:45;3.20;;;0.52;;
14369;SDS011;7268;50.792;0.252;2023-09-12T10:42:13;3.03;;;0.28;;
14369;SDS011;7268;50.792;0.252;2023-09-12T10:44:44;3.28;;;0.93;;
14369;SDS011;7268;50.792;0.252;2023-09-12T10:47:13;2.70;;;0.73;;
14369;SDS011;7268;50.792;0.252;2023-09-12T10:49:43;2.80;;;0.30;;
14369;SDS011;7268;50.792;0.252;2023-09-12T10:52:10;3.55;;;0.65;;
14369;SDS011;7268;50.792;0.252;2023-09-12T10:54:49;1.70;;;0.68;;
14369;SDS011;7268;50.792;0.252;2023-09-12T11:00:29;4.78;;;0.63;;
14369;SDS011;7268;50.792;0.252;2023-09-12T11:02:37;1.48;;;0.22;;
14369;SDS011;7268;50.792;0.252;2023-09-12T11:05:06;2.67;;;0.70;;
14369;SDS011;7268;50.792;0.252;2023-09-12T11:07:56;3.45;;;0.10;;
14369;SDS011;7268;50.792;0.252;2023-09-12T11:10:25;1.20;;;0.10;;
14369;SDS011;7268;50.792;0.252;2023-09-12T11:12:53;1.63;;;0.90;;
14369;SDS011;7268;50.792;0.252;2023-09-12T11:15:23;1.70;;;0.10;;
14369;SDS011;7268;50.792;0.252;2023-09-12T11:20:48;1.83;;;0.55;;
14369;SDS011;7268;50.792;0.252;2023-09-12T11:23:19;1.80;;;0.70;;
14369;SDS011;7268;50.792;0.252;2023-09-12T11:25:47;1.10;;;0.35;;
14369;SDS011;7268;50.792;0.252;2023-09-12T11:28:14;1.45;;;0.32;;
14369;SDS011;7268;50.792;0.252;2023-09-12T11:30:54;1.58;;;0.50;;
14369;SDS011;7268;50.792;0.252;2023-09-12T11:33:24;3.67;;;0.25;;
14369;SDS011;7268;50.792;0.252;2023-09-12T11:35:53;3.38;;;0.47;;
14369;SDS011;7268;50.792;0.252;2023-09-12T11:38:30;2.55;;;0.65;;
14369;SDS011;7268;50.792;0.252;2023-09-12T11:40:57;1.98;;;0.22;;
14369;SDS011;7268;50.792;0.252;2023-09-12T11:43:26;3.45;;;0.40;;
14369;SDS011;7268;50.792;0.252;2023-09-12T11:45:54;2.47;;;0.32;;
14369;SDS011;7268;50.792;0.252;2023-09-12T11:48:22;1.63;;;0.52;;
14369;SDS011;7268;50.792;0.252;2023-09-12T11:50:51;1.80;;;0.43;;
14369;SDS011;7268;50.792;0.252;2023-09-12T11:53:23;1.27;;;0.45;;
14369;SDS011;7268;50.792;0.252;2023-09-12T11:55:56;2.70;;;0.43;;
14369;SDS011;7268;50.792;0.252;2023-09-12T11:58:25;1.90;;;0.32;;
14369;SDS011;7268;50.792;0.252;2023-09-12T12:00:54;3.22;;;0.68;;
14369;SDS011;7268;50.792;0.252;2023-09-12T12:03:23;2.78;;;0.73;;
14369;SDS011;7268;50.792;0.252;2023-09-12T12:05:53;1.63;;;0.45;;
14369;SDS011;7268;50.792;0.252;2023-09-12T12:08:21;1.23;;;0.77;;
14369;SDS011;7268;50.792;0.252;2023-09-12T12:10:57;1.63;;;0.55;;
14369;SDS011;7268;50.792;0.252;2023-09-12T12:13:25;2.47;;;0.57;;
14369;SDS011;7268;50.792;0.252;2023-09-12T12:15:54;1.20;;;0.50;;
14369;SDS011;7268;50.792;0.252;2023-09-12T12:18:21;2.72;;;0.32;;
14369;SDS011;7268;50.792;0.252;2023-09-12T12:20:48;2.63;;;0.52;;
14369;SDS011;7268;50.792;0.252;2023-09-12T12:23:14;2.40;;;0.85;;
14369;SDS011;7268;50.792;0.252;2023-09-12T12:25:41;1.38;;;0.57;;
14369;SDS011;7268;50.792;0.252;2023-09-12T12:28:08;2.03;;;1.00;;
14369;SDS011;7268;50.792;0.252;2023-09-12T12:30:35;2.22;;;1.25;;
14369;SDS011;7268;50.792;0.252;2023-09-12T12:33:07;2.17;;;1.15;;
14369;SDS011;7268;50.792;0.252;2023-09-12T12:36:02;3.22;;;0.73;;
14369;SDS011;7268;50.792;0.252;2023-09-12T12:38:33;3.15;;;0.93;;
14369;SDS011;7268;50.792;0.252;2023-09-12T12:43:31;2.17;;;0.70;;
14369;SDS011;7268;50.792;0.252;2023-09-12T12:45:58;1.88;;;0.35;;
14369;SDS011;7268;50.792;0.252;2023-09-12T12:51:01;5.53;;;0.43;;
14369;SDS011;7268;50.792;0.252;2023-09-12T12:53:50;1.42;;;0.38;;
14369;SDS011;7268;50.792;0.252;2023-09-12T12:56:22;2.85;;;0.60;;
14369;SDS011;7268;50.792;0.252;2023-09-12T12:58:58;2.25;;;0.65;;
14369;SDS011;7268;50.792;0.252;2023-09-12T13:01:29;2.85;;;0.50;;
14369;SDS011;7268;50.792;0.252;2023-09-12T13:03:56;1.95;;;0.68;;
14369;SDS011;7268;50.792;0.252;2023-09-12T13:06:23;1.08;;;0.00;;
14369;SDS011;7268;50.792;0.252;2023-09-12T13:08:52;1.45;;;0.40;;
14369;SDS011;7268;50.792;0.252;2023-09-12T13:11:19;1.20;;;0.52;;
14369;SDS011;7268;50.792;0.252;2023-09-12T13:16:15;1.17;;;0.50;;
14369;SDS011;7268;50.792;0.252;2023-09-12T13:18:43;1.25;;;0.43;;
14369;SDS011;7268;50.792;0.252;2023-09-12T13:21:10;3.47;;;0.43;;
14369;SDS011;7268;50.792;0.252;2023-09-12T13:26:06;2.08;;;0.35;;
14369;SDS011;7268;50.792;0.252;2023-09-12T13:28:34;1.55;;;1.05;;
14369;SDS011;7268;50.792;0.252;2023-09-12T13:31:01;1.30;;;0.35;;
14369;SDS011;7268;50.792;0.252;2023-09-12T13:33:29;1.23;;;0.30;;
14369;SDS011;7268;50.792;0.252;2023-09-12T13:35:56;1.40;;;0.90;;
14369;SDS011;7268;50.792;0.252;2023-09-12T13:38:23;3.03;;;0.60;;
14369;SDS011;7268;50.792;0.252;2023-09-12T13:43:34;2.17;;;0.50;;
14369;SDS011;7268;50.792;0.252;2023-09-12T13:46:01;1.70;;;0.77;;
14369;SDS011;7268;50.792;0.252;2023-09-12T13:48:29;1.92;;;0.50;;
14369;SDS011;7268;50.792;0.252;2023-09-12T13:50:56;2.10;;;0.35;;
14369;SDS011;7268;50.792;0.252;2023-09-12T13:53:22;1.45;;;0.63;;
14369;SDS011;7268;50.792;0.252;2023-09-12T13:55:49;2.55;;;0.95;;
14369;SDS011;7268;50.792;0.252;2023-09-12T13:58:36;4.07;;;0.98;;
14369;SDS011;7268;50.792;0.252;2023-09-12T14:01:12;7.15;;;0.80;;
14369;SDS011;7268;50.792;0.252;2023-09-12T14:03:53;2.22;;;0.65;;
14369;SDS011;7268;50.792;0.252;2023-09-12T14:06:21;2.42;;;0.68;;
14369;SDS011;7268;50.792;0.252;2023-09-12T14:11:15;2.33;;;0.32;;
14369;SDS011;7268;50.792;0.252;2023-09-12T14:13:57;2.70;;;0.47;;
14369;SDS011;7268;50.792;0.252;2023-09-12T14:16:41;2.40;;;0.60;;
14369;SDS011;7268;50.792;0.252;2023-09-12T14:19:13;1.58;;;0.45;;
14369;SDS011;7268;50.792;0.252;2023-09-12T14:21:41;1.55;;;0.32;;
14369;SDS011;7268;50.792;0.252;2023-09-12T14:24:11;2.33;;;0.65;;
14369;SDS011;7268;50.792;0.252;2023-09-12T14:26:39;1.20;;;0.22;;
14369;SDS011;7268;50.792;0.252;2023-09-12T14:29:07;1.30;;;0.22;;
14369;SDS011;7268;50.792;0.252;2023-09-12T14:34:03;1.75;;;0.52;;
14369;SDS011;7268;50.792;0.252;2023-09-12T14:36:32;2.53;;;0.57;;
14369;SDS011;7268;50.792;0.252;2023-09-12T14:38:59;0.88;;;0.22;;
14369;SDS011;7268;50.792;0.252;2023-09-12T14:41:26;2.78;;;0.55;;
14369;SDS011;7268;50.792;0.252;2023-09-12T14:43:53;2.28;;;0.65;;
14369;SDS011;7268;50.792;0.252;2023-09-12T14:46:20;1.55;;;0.65;;
14369;SDS011;7268;50.792;0.252;2023-09-12T14:48:47;4.78;;;1.05;;
14369;SDS011;7268;50.792;0.252;2023-09-12T14:53:59;2.53;;;0.88;;
14369;SDS011;7268;50.792;0.252;2023-09-12T14:58:53;4.55;;;0.68;;
14369;SDS011;7268;50.792;0.252;2023-09-12T15:01:20;2.65;;;0.60;;
14369;SDS011;7268;50.792;0.252;2023-09-12T15:03:47;3.90;;;0.73;;
14369;SDS011;7268;50.792;0.252;2023-09-12T15:06:15;1.88;;;0.30;;
14369;SDS011;7268;50.792;0.252;2023-09-12T15:08:41;4.25;;;1.20;;
14369;SDS011;7268;50.792;0.252;2023-09-12T15:11:08;3.72;;;0.70;;
14369;SDS011;7268;50.792;0.252;2023-09-12T15:13:35;2.60;;;1.23;;
14369;SDS011;7268;50.792;0.252;2023-09-12T15:16:06;2.90;;;0.93;;
14369;SDS011;7268;50.792;0.252;2023-09-12T15:18:33;1.88;;;0.55;;
14369;SDS011;7268;50.792;0.252;2023-09-12T15:20:59;2.85;;;0.65;;
14369;SDS011;7268;50.792;0.252;2023-09-12T15:23:26;4.88;;;1.48;;
14369;SDS011;7268;50.792;0.252;2023-09-12T15:25:55;1.92;;;0.93;;
14369;SDS011;7268;50.792;0.252;2023-09-12T15:28:21;2.42;;;1.25;;
14369;SDS011;7268;50.792;0.252;2023-09-12T15:30:48;2.47;;;1.67;;
14369;SDS011;7268;50.792;0.252;2023-09-12T15:33:15;4.13;;;1.13;;
14369;SDS011;7268;50.792;0.252;2023-09-12T15:35:42;2.28;;;1.25;;
14369;SDS011;7268;50.792;0.252;2023-09-12T15:38:09;2.72;;;1.13;;
14369;SDS011;7268;50.792;0.252;2023-09-12T15:43:03;3.35;;;0.77;;
14369;SDS011;7268;50.792;0.252;2023-09-12T15:45:44;2.22;;;1.08;;
14369;SDS011;7268;50.792;0.252;2023-09-12T15:48:16;2.33;;;0.90;;
14369;SDS011;7268;50.792;0.252;2023-09-12T15:50:43;1.63;;;0.40;;